Time;durP1;ratioP1;P1;durP2;ratioP2;P2;SDS_P1;SDS_P2;PMS_P1;PMS_P2;Temp;Humidity;BMP_temperature;BMP_pressure;BME280_temperature;BME280_humidity;BME280_pressure;Samples;Min_cycle;Max_cycle;Signal;HPM_P1;HPM_P2
2021/08/31 00:00:26;;;;;;;12.37;8.83;;;17.40;99.90;;;;;;5113899;28;20210;-59
2021/08/31 00:02:52;;;;;;;10.80;8.20;;;17.30;99.90;;;;;;5113806;28;20214;-59
2021/08/31 00:05:19;;;;;;;8.17;7.33;;;17.30;99.90;;;;;;5113782;28;20215;-59
2021/08/31 00:07:47;;;;;;;8.70;7.55;;;17.30;99.90;;;;;;5113866;28;20666;-59
2021/08/31 00:10:14;;;;;;;9.82;8.05;;;17.20;99.90;;;;;;5113889;28;20227;-59
2021/08/31 00:12:41;;;;;;;8.80;7.77;;;17.20;99.90;;;;;;5114014;28;20317;-59
2021/08/31 00:15:10;;;;;;;9.10;8.20;;;17.20;99.90;;;;;;5113797;28;20199;-59
2021/08/31 00:17:37;;;;;;;8.47;7.67;;;17.10;99.90;;;;;;5113490;28;20231;-59
2021/08/31 00:20:06;;;;;;;9.80;8.30;;;17.10;99.90;;;;;;5113860;28;20211;-60
2021/08/31 00:22:35;;;;;;;8.77;7.50;;;17.10;99.90;;;;;;5113693;28;20199;-59
2021/08/31 00:25:03;;;;;;;8.33;7.50;;;17.10;99.90;;;;;;5113517;28;20215;-59
2021/08/31 00:27:30;;;;;;;9.60;7.63;;;17.10;99.90;;;;;;5113360;28;20227;-59
2021/08/31 00:29:57;;;;;;;8.27;7.30;;;17.10;99.90;;;;;;5112652;28;20357;-58
2021/08/31 00:32:24;;;;;;;8.43;7.63;;;17.10;99.90;;;;;;5113118;28;20207;-59
2021/08/31 00:34:50;;;;;;;10.17;8.00;;;17.00;99.90;;;;;;5113330;28;20222;-59
2021/08/31 00:37:17;;;;;;;9.70;7.30;;;17.00;99.90;;;;;;5113370;28;20239;-58
2021/08/31 00:39:44;;;;;;;10.03;7.90;;;16.90;99.90;;;;;;5113051;28;20264;-58
2021/08/31 00:42:12;;;;;;;11.23;7.43;;;16.90;99.90;;;;;;5113275;28;20576;-59
2021/08/31 00:44:39;;;;;;;8.67;7.50;;;16.90;99.90;;;;;;5112747;28;20203;-59
2021/08/31 00:47:06;;;;;;;8.70;7.87;;;16.90;99.90;;;;;;5112567;28;20264;-59
2021/08/31 00:49:33;;;;;;;10.80;7.70;;;17.00;99.90;;;;;;5112975;28;20207;-59
2021/08/31 00:52:01;;;;;;;10.30;8.43;;;16.90;99.90;;;;;;5112676;28;20234;-59
2021/08/31 00:54:29;;;;;;;8.25;7.30;;;16.80;99.90;;;;;;5112500;28;20580;-59
2021/08/31 00:56:57;;;;;;;9.23;7.77;;;16.60;99.90;;;;;;5112678;28;20297;-59
2021/08/31 00:59:25;;;;;;;10.80;7.37;;;16.60;99.90;;;;;;5112399;28;20203;-59
2021/08/31 01:01:53;;;;;;;7.97;7.03;;;16.40;99.90;;;;;;5112751;28;20203;-59
2021/08/31 01:04:20;;;;;;;9.10;6.67;;;16.50;99.90;;;;;;5112779;28;20207;-59
2021/08/31 01:06:47;;;;;;;10.07;7.13;;;16.40;99.90;;;;;;5112626;28;20238;-59
2021/08/31 01:09:13;;;;;;;7.93;7.13;;;16.40;99.90;;;;;;5112547;28;20210;-58
2021/08/31 01:11:40;;;;;;;7.40;6.70;;;16.50;99.90;;;;;;5112624;28;20264;-59
2021/08/31 01:14:08;;;;;;;7.57;6.57;;;16.60;99.90;;;;;;5112286;28;20200;-59
2021/08/31 01:16:37;;;;;;;10.03;7.03;;;16.60;99.90;;;;;;5112474;28;20227;-59
2021/08/31 01:19:04;;;;;;;9.70;6.80;;;16.50;99.90;;;;;;5112156;28;20741;-59
2021/08/31 01:21:30;;;;;;;9.80;6.50;;;16.50;99.90;;;;;;5112731;28;20215;-59
2021/08/31 01:23:57;;;;;;;8.30;6.90;;;16.30;99.90;;;;;;5112152;28;20575;-59
2021/08/31 01:26:25;;;;;;;7.05;6.35;;;16.40;99.90;;;;;;5112442;28;20219;-60
2021/08/31 01:28:52;;;;;;;8.10;6.53;;;16.50;99.90;;;;;;5112143;28;20211;-60
2021/08/31 01:31:19;;;;;;;8.53;6.73;;;16.50;99.90;;;;;;5112372;28;20223;-60
2021/08/31 01:33:46;;;;;;;7.97;6.37;;;16.50;99.90;;;;;;5112288;28;20281;-60
2021/08/31 01:36:15;;;;;;;7.63;6.83;;;16.40;99.90;;;;;;5112131;28;20231;-58
2021/08/31 01:38:42;;;;;;;7.87;7.03;;;16.40;99.90;;;;;;5112104;28;20576;-59
2021/08/31 01:41:09;;;;;;;9.30;7.80;;;16.50;99.90;;;;;;5111966;28;20222;-58
2021/08/31 01:43:38;;;;;;;8.30;6.93;;;16.60;99.90;;;;;;5111974;28;20675;-60
2021/08/31 01:46:04;;;;;;;7.60;6.83;;;16.70;99.90;;;;;;5112327;28;20231;-58
2021/08/31 01:48:31;;;;;;;10.18;7.25;;;16.70;99.90;;;;;;5111874;28;20207;-58
2021/08/31 01:50:59;;;;;;;8.73;7.37;;;16.80;99.90;;;;;;5111926;28;20310;-59
2021/08/31 01:53:26;;;;;;;9.30;7.47;;;16.90;99.90;;;;;;5112054;28;20231;-59
2021/08/31 01:55:52;;;;;;;8.17;7.40;;;16.90;99.90;;;;;;5111584;28;20230;-59
2021/08/31 01:58:19;;;;;;;9.43;7.83;;;16.90;99.90;;;;;;5111642;28;20207;-59
2021/08/31 02:00:47;;;;;;;10.43;7.50;;;16.90;99.90;;;;;;5111479;28;20685;-59
2021/08/31 02:03:14;;;;;;;8.77;7.00;;;16.90;99.90;;;;;;5111648;28;20207;-59
2021/08/31 02:05:41;;;;;;;8.63;7.57;;;16.90;99.90;;;;;;5111300;28;20235;-58
2021/08/31 02:08:08;;;;;;;8.73;7.27;;;16.80;99.90;;;;;;5111242;28;20571;-58
2021/08/31 02:10:34;;;;;;;8.60;7.57;;;16.80;99.90;;;;;;5111235;28;20207;-58
2021/08/31 02:13:02;;;;;;;10.37;7.40;;;16.80;99.90;;;;;;5111632;28;20208;-58
2021/08/31 02:15:29;;;;;;;8.57;7.50;;;16.80;99.90;;;;;;5111378;28;20207;-58
2021/08/31 02:17:57;;;;;;;9.63;7.87;;;16.80;99.90;;;;;;5111818;28;20207;-59
2021/08/31 02:20:23;;;;;;;12.33;8.20;;;16.80;99.90;;;;;;5111407;28;20461;-58
2021/08/31 02:22:50;;;;;;;8.93;8.03;;;16.80;99.90;;;;;;5111301;28;20255;-58
2021/08/31 02:25:17;;;;;;;10.23;8.73;;;16.80;99.90;;;;;;5111143;28;20206;-59
2021/08/31 02:27:44;;;;;;;8.37;7.57;;;16.80;99.90;;;;;;5111298;28;20218;-59
2021/08/31 02:30:11;;;;;;;8.67;7.57;;;16.80;99.90;;;;;;5111203;28;20237;-59
2021/08/31 02:32:38;;;;;;;10.70;8.37;;;16.80;99.90;;;;;;5111200;28;20599;-59
2021/08/31 02:35:07;;;;;;;9.40;7.70;;;16.80;99.90;;;;;;5111291;28;20583;-59
2021/08/31 02:37:34;;;;;;;9.93;7.73;;;16.80;99.90;;;;;;5111249;28;20219;-60
2021/08/31 02:40:01;;;;;;;8.77;7.87;;;16.80;99.90;;;;;;5111245;28;20208;-59
2021/08/31 02:42:28;;;;;;;8.70;7.83;;;16.80;99.90;;;;;;5111329;28;20204;-60
2021/08/31 02:44:54;;;;;;;9.47;8.53;;;16.80;99.90;;;;;;5111079;28;20199;-59
2021/08/31 02:47:21;;;;;;;8.87;7.97;;;16.80;99.90;;;;;;5110688;28;20231;-59
2021/08/31 02:49:48;;;;;;;8.83;8.03;;;16.80;99.90;;;;;;5111163;28;20210;-59
2021/08/31 02:52:16;;;;;;;9.10;8.07;;;16.80;99.90;;;;;;5111182;28;20228;-59
2021/08/31 02:54:43;;;;;;;11.43;7.43;;;16.80;99.90;;;;;;5113481;28;20212;-59
2021/08/31 02:57:10;;;;;;;8.40;7.50;;;16.80;99.90;;;;;;5115485;28;20223;-59
2021/08/31 02:59:37;;;;;;;9.63;7.87;;;16.80;99.90;;;;;;5114821;28;20211;-59
2021/08/31 03:02:07;;;;;;;11.40;7.80;;;16.80;99.90;;;;;;5114845;28;20240;-59
2021/08/31 03:04:36;;;;;;;10.27;9.00;;;16.80;99.90;;;;;;5114761;28;20239;-59
2021/08/31 03:07:03;;;;;;;9.43;8.33;;;16.80;99.90;;;;;;5115119;28;20319;-59
2021/08/31 03:09:32;;;;;;;11.27;8.87;;;16.80;99.90;;;;;;5114997;28;20203;-59
2021/08/31 03:11:59;;;;;;;10.20;7.63;;;16.80;99.90;;;;;;5114802;28;20223;-59
2021/08/31 03:14:26;;;;;;;11.93;7.60;;;16.90;99.90;;;;;;5114788;28;20210;-59
2021/08/31 03:16:52;;;;;;;8.47;7.67;;;16.90;99.90;;;;;;5115138;28;20224;-59
2021/08/31 03:19:21;;;;;;;10.53;9.33;;;16.90;99.90;;;;;;5114426;28;20203;-59
2021/08/31 03:21:47;;;;;;;10.90;8.30;;;16.90;99.90;;;;;;5114950;28;20204;-59
2021/08/31 03:24:14;;;;;;;10.43;7.73;;;16.90;99.90;;;;;;5114525;28;20203;-60
2021/08/31 03:26:42;;;;;;;10.13;7.67;;;16.90;99.90;;;;;;5114125;28;20227;-58
2021/08/31 03:29:09;;;;;;;10.07;8.63;;;16.90;99.90;;;;;;5114417;28;20273;-58
2021/08/31 03:31:36;;;;;;;10.83;8.90;;;16.80;99.90;;;;;;5114140;28;20636;-59
2021/08/31 03:34:03;;;;;;;10.57;8.47;;;16.80;99.90;;;;;;5114230;28;20728;-59
2021/08/31 03:36:30;;;;;;;8.87;7.97;;;16.80;99.90;;;;;;5114231;28;20231;-59
2021/08/31 03:38:57;;;;;;;9.97;8.47;;;16.80;99.90;;;;;;5114096;28;20203;-59
2021/08/31 03:41:24;;;;;;;10.53;9.27;;;16.80;99.90;;;;;;5114028;28;20577;-59
2021/08/31 03:43:52;;;;;;;9.80;8.63;;;16.80;99.90;;;;;;5113897;28;20199;-59
2021/08/31 03:46:18;;;;;;;10.20;8.67;;;16.80;99.90;;;;;;5121430;22;20594;-58
2021/08/31 03:48:45;;;;;;;9.97;8.63;;;16.80;99.90;;;;;;5093353;28;20208;-57
2021/08/31 03:51:12;;;;;;;11.03;9.83;;;16.80;99.90;;;;;;5093539;28;20212;-57
2021/08/31 03:53:39;;;;;;;9.30;8.40;;;16.80;99.90;;;;;;5093488;28;20207;-59
2021/08/31 03:56:06;;;;;;;10.33;8.53;;;16.80;99.90;;;;;;5093289;28;20319;-57
2021/08/31 03:58:33;;;;;;;14.73;11.87;;;16.80;99.90;;;;;;5093036;28;20200;-59
2021/08/31 04:01:01;;;;;;;11.10;9.30;;;16.70;99.90;;;;;;5093672;28;20204;-58
2021/08/31 04:03:27;;;;;;;12.40;9.50;;;16.80;99.90;;;;;;5093090;28;20200;-58
2021/08/31 04:05:54;;;;;;;14.47;9.60;;;16.80;99.90;;;;;;5092515;28;20221;-57
2021/08/31 04:08:21;;;;;;;12.60;9.33;;;16.80;99.90;;;;;;5093001;28;20204;-61
2021/08/31 04:10:47;;;;;;;12.50;9.23;;;16.80;99.90;;;;;;5092893;28;20204;-60
2021/08/31 04:13:17;;;;;;;9.77;8.77;;;16.90;99.90;;;;;;5092584;28;20228;-57
2021/08/31 04:15:44;;;;;;;14.23;9.90;;;16.90;99.90;;;;;;5092558;28;20655;-57
2021/08/31 04:18:12;;;;;;;13.97;9.87;;;16.90;99.90;;;;;;5092760;28;20208;-59
2021/08/31 04:20:39;;;;;;;10.33;8.83;;;16.90;99.90;;;;;;5092633;28;20215;-61
2021/08/31 04:23:06;;;;;;;11.77;9.00;;;16.90;99.90;;;;;;5092576;28;20215;-60
2021/08/31 04:25:33;;;;;;;10.97;8.40;;;16.90;99.90;;;;;;5092142;28;20551;-61
2021/08/31 04:27:59;;;;;;;11.15;9.80;;;16.90;99.90;;;;;;5092308;28;20204;-60
2021/08/31 04:30:26;;;;;;;11.30;9.17;;;16.90;99.90;;;;;;5092500;28;20208;-60
2021/08/31 04:32:53;;;;;;;10.00;8.50;;;16.90;99.90;;;;;;5092404;28;20227;-60
2021/08/31 04:35:21;;;;;;;11.43;8.50;;;16.90;99.90;;;;;;5092227;28;20208;-61
2021/08/31 04:37:48;;;;;;;11.07;8.67;;;16.90;99.90;;;;;;5092435;28;20232;-60
2021/08/31 04:40:14;;;;;;;11.67;8.50;;;16.90;99.90;;;;;;5092080;28;20212;-60
2021/08/31 04:42:41;;;;;;;9.10;8.10;;;16.70;99.90;;;;;;5092104;28;20212;-61
2021/08/31 04:45:09;;;;;;;10.83;7.90;;;16.50;99.90;;;;;;5091834;28;20720;-61
2021/08/31 04:47:35;;;;;;;9.93;8.30;;;16.30;99.90;;;;;;5091694;28;20326;-60
2021/08/31 04:50:02;;;;;;;8.73;7.93;;;16.20;99.90;;;;;;5092022;28;20238;-61
2021/08/31 04:52:30;;;;;;;9.60;8.60;;;16.10;99.90;;;;;;5091907;28;20220;-61
2021/08/31 04:54:57;;;;;;;11.97;9.33;;;16.20;99.90;;;;;;5091626;28;20208;-61
2021/08/31 04:57:24;;;;;;;8.23;7.43;;;16.20;99.90;;;;;;5092037;28;20311;-61
2021/08/31 04:59:50;;;;;;;9.37;8.37;;;16.30;99.90;;;;;;5091925;28;20211;-61
2021/08/31 05:02:17;;;;;;;9.60;8.30;;;16.40;99.90;;;;;;5091893;28;20208;-61
2021/08/31 05:04:44;;;;;;;8.70;7.80;;;16.50;99.90;;;;;;5091740;28;20200;-59
2021/08/31 05:07:11;;;;;;;10.53;8.37;;;16.40;99.90;;;;;;5091767;28;20231;-58
2021/08/31 05:09:41;;;;;;;11.53;8.37;;;16.40;99.90;;;;;;5091569;28;20200;-60
2021/08/31 05:12:08;;;;;;;8.37;7.23;;;16.30;99.90;;;;;;5092004;28;20232;-58
2021/08/31 05:14:35;;;;;;;10.70;8.00;;;16.30;99.90;;;;;;5092034;28;20337;-59
2021/08/31 05:17:02;;;;;;;9.47;7.87;;;16.20;99.90;;;;;;5091194;28;20487;-57
2021/08/31 05:19:29;;;;;;;11.77;8.77;;;16.40;99.90;;;;;;5091876;28;20208;-58
2021/08/31 05:21:55;;;;;;;12.20;8.93;;;16.60;99.90;;;;;;5091729;28;20208;-58
2021/08/31 05:24:22;;;;;;;9.90;8.37;;;16.70;99.90;;;;;;5091797;28;20204;-62
2021/08/31 05:26:50;;;;;;;9.10;8.17;;;16.80;99.90;;;;;;5091704;28;20623;-59
2021/08/31 05:29:17;;;;;;;12.40;8.90;;;16.90;99.90;;;;;;5091565;28;20231;-59
2021/08/31 05:31:45;;;;;;;9.20;8.30;;;17.00;99.90;;;;;;5091851;28;20560;-58
2021/08/31 05:34:12;;;;;;;10.73;8.23;;;17.00;99.90;;;;;;5091217;28;20295;-58
2021/08/31 05:36:39;;;;;;;14.77;8.30;;;16.80;99.90;;;;;;5091634;28;20248;-60
2021/08/31 05:39:06;;;;;;;8.87;7.50;;;16.60;99.90;;;;;;5091232;28;20234;-58
2021/08/31 05:41:34;;;;;;;9.17;8.00;;;16.50;99.90;;;;;;5091343;28;20200;-59
2021/08/31 05:44:02;;;;;;;8.43;6.93;;;16.40;99.90;;;;;;5090680;28;20204;-59
2021/08/31 05:46:30;;;;;;;7.97;7.17;;;16.70;99.90;;;;;;5090696;28;20236;-59
2021/08/31 05:48:56;;;;;;;8.85;7.75;;;16.90;99.90;;;;;;5090842;28;20286;-58
2021/08/31 05:51:23;;;;;;;11.48;7.72;;;17.10;99.90;;;;;;5091293;28;20200;-58
2021/08/31 05:53:50;;;;;;;12.73;6.93;;;17.50;99.90;;;;;;5090976;28;20224;-59
2021/08/31 05:56:17;;;;;;;8.23;6.72;;;18.20;99.90;;;;;;5091083;28;20231;-58
2021/08/31 05:58:43;;;;;;;8.48;7.28;;;18.70;99.90;;;;;;5090906;28;20204;-60
2021/08/31 06:01:12;;;;;;;10.15;6.53;;;18.70;99.90;;;;;;5091141;28;20629;-58
2021/08/31 06:03:38;;;;;;;8.20;6.65;;;18.60;99.90;;;;;;5090804;28;20635;-59
2021/08/31 06:06:05;;;;;;;8.60;6.40;;;18.50;99.90;;;;;;5090791;28;20228;-60
2021/08/31 06:08:33;;;;;;;8.00;6.00;;;19.00;99.90;;;;;;5092022;28;20208;-59
2021/08/31 06:11:00;;;;;;;10.02;6.50;;;19.70;99.90;;;;;;5093769;28;20200;-59
2021/08/31 06:13:27;;;;;;;7.20;6.50;;;20.10;99.90;;;;;;5092107;28;20232;-60
2021/08/31 06:15:54;;;;;;;7.22;5.55;;;20.50;99.90;;;;;;5090648;28;20224;-58
2021/08/31 06:18:22;;;;;;;9.80;6.22;;;20.60;99.90;;;;;;5090420;28;20208;-59
2021/08/31 06:20:48;;;;;;;8.80;5.88;;;20.30;99.90;;;;;;5090702;28;20215;-58
2021/08/31 06:23:15;;;;;;;8.18;6.40;;;19.90;99.90;;;;;;5090719;28;20613;-60
2021/08/31 06:25:42;;;;;;;7.25;6.10;;;19.50;99.90;;;;;;5090646;28;20664;-59
2021/08/31 06:28:08;;;;;;;8.68;6.05;;;19.00;99.90;;;;;;5092013;28;20216;-58
2021/08/31 06:30:35;;;;;;;8.02;5.50;;;19.00;99.90;;;;;;5095013;28;20422;-60
2021/08/31 06:33:02;;;;;;;8.25;6.22;;;19.00;99.90;;;;;;5094732;28;20224;-59
2021/08/31 06:35:30;;;;;;;6.90;6.10;;;19.00;99.90;;;;;;5094728;28;20207;-58
2021/08/31 06:37:56;;;;;;;7.97;6.25;;;18.90;99.90;;;;;;5094459;28;20200;-59
2021/08/31 06:40:23;;;;;;;7.15;5.65;;;18.90;99.90;;;;;;5094413;28;20699;-59
2021/08/31 06:42:50;;;;;;;8.48;6.20;;;18.50;99.90;;;;;;5094856;28;20208;-59
2021/08/31 06:45:16;;;;;;;7.25;6.35;;;18.40;99.90;;;;;;5095074;28;20231;-57
2021/08/31 06:47:43;;;;;;;8.68;6.35;;;18.30;99.90;;;;;;5094295;28;20240;-64
2021/08/31 06:50:15;;;;;;;6.95;6.25;;;18.10;99.90;;;;;;5094699;28;20209;-60
2021/08/31 06:52:44;;;;;;;10.30;6.10;;;18.00;99.90;;;;;;5094373;28;20284;-60
2021/08/31 06:55:11;;;;;;;8.63;6.93;;;18.00;99.90;;;;;;5094231;28;20204;-59
2021/08/31 06:57:38;;;;;;;9.10;6.15;;;18.00;99.90;;;;;;5094232;28;20504;-59
2021/08/31 07:00:07;;;;;;;8.18;5.90;;;18.30;99.90;;;;;;5094302;28;20212;-60
2021/08/31 07:02:34;;;;;;;9.70;6.25;;;18.50;99.90;;;;;;5094316;28;20269;-59
2021/08/31 07:05:01;;;;;;;7.53;6.18;;;18.70;99.90;;;;;;5094043;28;20208;-59
2021/08/31 07:07:27;;;;;;;7.20;5.93;;;18.70;99.90;;;;;;5093954;28;20224;-59
2021/08/31 07:09:55;;;;;;;10.05;5.75;;;18.50;99.90;;;;;;5093852;28;20231;-59
2021/08/31 07:12:22;;;;;;;8.98;6.13;;;18.80;99.90;;;;;;5093839;28;20213;-63
2021/08/31 07:14:51;;;;;;;8.63;5.38;;;19.10;99.90;;;;;;5093747;28;20208;-64
2021/08/31 07:17:17;;;;;;;7.63;5.22;;;20.10;99.90;;;;;;5094003;28;20228;-64
2021/08/31 07:19:44;;;;;;;7.88;5.53;;;21.40;99.90;;;;;;5093775;28;20696;-66
2021/08/31 07:22:11;;;;;;;7.53;5.40;;;22.20;99.90;;;;;;5072440;28;20481;-63
2021/08/31 07:24:38;;;;;;;7.68;5.22;;;22.40;99.90;;;;;;5072997;28;20580;-63
2021/08/31 07:27:06;;;;;;;5.70;4.80;;;22.60;99.90;;;;;;5072983;28;20228;-64
2021/08/31 07:29:33;;;;;;;7.85;4.85;;;22.40;99.90;;;;;;5080721;28;20201;-65
2021/08/31 07:32:00;;;;;;;5.53;4.90;;;21.90;99.90;;;;;;5093381;28;20215;-63
2021/08/31 07:34:28;;;;;;;7.68;5.63;;;21.50;99.90;;;;;;5093039;28;20799;-65
2021/08/31 07:36:55;;;;;;;7.70;5.00;;;21.20;99.90;;;;;;5093539;28;20707;-63
2021/08/31 07:39:22;;;;;;;6.93;5.03;;;20.90;99.90;;;;;;5092595;28;20208;-63
2021/08/31 07:41:48;;;;;;;7.63;4.82;;;20.50;99.90;;;;;;5092936;28;20566;-62
2021/08/31 07:44:17;;;;;;;7.45;5.18;;;20.40;99.90;;;;;;5093325;28;20577;-62
2021/08/31 07:46:46;;;;;;;5.75;4.90;;;20.20;99.90;;;;;;5093042;28;20250;-64
2021/08/31 07:49:14;;;;;;;7.78;4.90;;;20.10;99.90;;;;;;5093163;28;20299;-66
2021/08/31 07:51:40;;;;;;;5.80;4.53;;;19.80;99.90;;;;;;5093107;28;20285;-62
2021/08/31 07:54:08;;;;;;;7.18;5.43;;;19.70;99.90;;;;;;5092764;28;20232;-65
2021/08/31 07:56:34;;;;;;;8.02;5.57;;;19.60;99.90;;;;;;5092939;28;20315;-60
2021/08/31 07:59:01;;;;;;;6.60;5.28;;;19.60;99.90;;;;;;5092909;28;20211;-64
2021/08/31 08:01:30;;;;;;;8.90;5.82;;;19.70;99.90;;;;;;5091853;28;20211;-63
2021/08/31 08:03:57;;;;;;;8.38;5.78;;;20.00;99.90;;;;;;5093440;28;20212;-63
2021/08/31 08:06:24;;;;;;;8.05;5.38;;;20.10;99.90;;;;;;5092854;28;20224;-61
2021/08/31 08:08:50;;;;;;;6.68;5.40;;;20.20;99.90;;;;;;5092695;28;20207;-60
2021/08/31 08:11:17;;;;;;;11.05;5.47;;;20.10;99.90;;;;;;5093071;28;20208;-64
2021/08/31 08:13:44;;;;;;;8.18;5.75;;;20.20;99.90;;;;;;5092703;28;20228;-61
2021/08/31 08:16:11;;;;;;;6.07;5.43;;;20.50;99.90;;;;;;5091059;28;20726;-62
2021/08/31 08:18:39;;;;;;;6.72;5.53;;;20.90;99.90;;;;;;5092620;28;20211;-64
2021/08/31 08:21:06;;;;;;;7.97;5.70;;;21.10;99.90;;;;;;5092803;28;20607;-63
2021/08/31 08:23:33;;;;;;;7.75;5.63;;;21.10;99.90;;;;;;5092242;28;20695;-62
2021/08/31 08:26:00;;;;;;;7.35;5.18;;;21.20;99.90;;;;;;5092508;28;20231;-64
2021/08/31 08:28:26;;;;;;;7.18;5.38;;;21.30;99.90;;;;;;5092227;28;20212;-63
2021/08/31 08:30:53;;;;;;;7.55;5.63;;;21.70;99.90;;;;;;5087905;28;20205;-64
2021/08/31 08:33:21;;;;;;;6.10;5.40;;;22.10;99.90;;;;;;5075641;28;20585;-64
2021/08/31 08:35:50;;;;;;;7.10;5.10;;;22.40;99.90;;;;;;5091925;28;20213;-64
2021/08/31 08:38:17;;;;;;;6.45;5.47;;;22.60;99.90;;;;;;5092477;28;20208;-62
2021/08/31 08:40:44;;;;;;;6.93;4.57;;;22.70;99.90;;;;;;5092454;28;20204;-62
2021/08/31 08:43:13;;;;;;;6.55;5.30;;;22.40;99.90;;;;;;5092182;28;20226;-65
2021/08/31 08:45:44;;;;;;;6.82;4.50;;;22.30;99.90;;;;;;5091548;28;20204;-63
2021/08/31 08:48:18;;;;;;;7.28;4.95;;;21.90;99.90;;;;;;5091737;28;20224;-62
2021/08/31 08:50:45;;;;;;;8.85;5.13;;;21.40;99.90;;;;;;5091832;28;20272;-63
2021/08/31 08:53:14;;;;;;;7.88;5.47;;;21.00;99.90;;;;;;5091374;28;20273;-63
2021/08/31 08:55:41;;;;;;;6.70;4.95;;;20.90;99.90;;;;;;5091541;28;20215;-64
2021/08/31 08:58:08;;;;;;;6.93;5.55;;;20.80;99.90;;;;;;5091823;28;20219;-63
2021/08/31 09:00:54;;;;;;;6.13;5.40;;;20.80;99.90;;;;;;5091781;28;20205;-64
2021/08/31 09:03:22;;;;;;;7.53;5.03;;;20.50;99.90;;;;;;5091862;28;20207;-63
2021/08/31 09:05:49;;;;;;;6.38;5.78;;;20.40;99.90;;;;;;5090353;28;20242;-63
2021/08/31 09:08:17;;;;;;;6.28;5.00;;;20.30;99.90;;;;;;5091792;28;20212;-63
2021/08/31 09:10:47;;;;;;;4.63;3.90;;;20.30;99.90;;;;;;5092071;28;20586;-64
2021/08/31 09:13:21;;;;;;;5.32;3.92;;;20.30;99.90;;;;;;5088357;28;20674;-64
2021/08/31 09:15:48;;;;;;;5.30;3.72;;;20.20;99.90;;;;;;5088327;28;20236;-63
2021/08/31 09:18:18;;;;;;;5.75;3.95;;;20.30;99.90;;;;;;5088311;28;20211;-63
2021/08/31 09:21:02;;;;;;;4.32;3.92;;;20.40;99.90;;;;;;5088260;28;20211;-64
2021/08/31 09:23:32;;;;;;;5.32;3.90;;;20.50;99.90;;;;;;5108535;22;20208;-64
2021/08/31 09:26:06;;;;;;;4.95;4.10;;;20.50;99.90;;;;;;5067582;28;20209;-62
2021/08/31 09:28:35;;;;;;;6.85;3.92;;;20.30;99.90;;;;;;5067809;28;20511;-63
2021/08/31 09:31:05;;;;;;;5.78;4.18;;;20.30;99.90;;;;;;5071892;28;20232;-63
2021/08/31 09:33:33;;;;;;;4.75;3.97;;;20.20;99.90;;;;;;5087231;28;20278;-61
2021/08/31 09:36:03;;;;;;;4.38;3.97;;;19.90;99.90;;;;;;5087707;28;20204;-62
2021/08/31 09:38:41;;;;;;;4.63;3.97;;;20.00;99.90;;;;;;5072994;28;20292;-62
2021/08/31 09:41:07;;;;;;;4.63;3.72;;;20.10;99.90;;;;;;5067418;28;20204;-62
2021/08/31 09:43:36;;;;;;;8.93;4.13;;;20.10;99.90;;;;;;5067156;28;20229;-63
2021/08/31 09:46:03;;;;;;;4.97;4.28;;;20.10;99.90;;;;;;5067062;28;20673;-63
2021/08/31 09:48:29;;;;;;;4.43;3.97;;;20.20;99.90;;;;;;5067049;28;20209;-62
2021/08/31 09:50:58;;;;;;;5.25;3.35;;;20.00;99.90;;;;;;5066839;28;20209;-63
2021/08/31 09:53:26;;;;;;;5.25;3.92;;;19.90;99.90;;;;;;5066966;28;20229;-64
2021/08/31 09:56:06;;;;;;;5.95;3.88;;;19.70;99.90;;;;;;5067129;28;20274;-65
2021/08/31 09:58:36;;;;;;;6.63;4.20;;;19.70;99.90;;;;;;5066723;28;20830;-64
2021/08/31 10:01:04;;;;;;;4.38;3.97;;;19.70;99.90;;;;;;5066624;28;20215;-63
2021/08/31 10:03:33;;;;;;;4.68;3.83;;;19.90;99.90;;;;;;5066838;28;20228;-62
2021/08/31 10:06:02;;;;;;;4.80;3.90;;;19.90;99.90;;;;;;5066512;28;20673;-63
2021/08/31 10:08:32;;;;;;;4.38;3.90;;;20.00;99.90;;;;;;5066550;28;20201;-65
2021/08/31 10:11:00;;;;;;;5.60;4.13;;;19.90;99.90;;;;;;5065629;28;20686;-62
2021/08/31 10:13:28;;;;;;;5.38;3.95;;;20.10;99.90;;;;;;5065857;28;20224;-62
2021/08/31 10:15:57;;;;;;;4.13;3.53;;;20.20;99.90;;;;;;5066289;28;20699;-60
2021/08/31 10:18:26;;;;;;;5.72;4.55;;;20.40;99.90;;;;;;5066309;28;20300;-64
2021/08/31 10:20:55;;;;;;;8.00;4.45;;;20.60;99.90;;;;;;5066525;28;20208;-66
2021/08/31 10:23:28;;;;;;;4.28;3.60;;;20.80;99.90;;;;;;5059880;28;20225;-63
2021/08/31 10:26:24;;;;;;;5.25;4.18;;;20.80;99.90;;;;;;5052867;28;20564;-64
2021/08/31 10:28:51;;;;;;;5.07;3.80;;;21.10;99.90;;;;;;5052968;28;20218;-65
2021/08/31 10:31:28;;;;;;;4.38;3.60;;;21.20;99.90;;;;;;5052748;28;20213;-67
2021/08/31 10:33:55;;;;;;;7.88;4.88;;;21.50;99.90;;;;;;5052772;28;20229;-62
2021/08/31 10:36:35;;;;;;;5.30;3.60;;;22.00;99.90;;;;;;5052876;28;20201;-61
2021/08/31 10:39:03;;;;;;;4.28;3.60;;;22.50;99.90;;;;;;5052627;28;20216;-67
2021/08/31 10:41:47;;;;;;;4.80;3.90;;;22.50;99.90;;;;;;5052035;28;20634;-67
2021/08/31 10:44:44;;;;;;;4.38;3.63;;;22.60;99.90;;;;;;5052528;28;20697;-67
2021/08/31 10:47:31;;;;;;;4.88;3.55;;;22.90;99.90;;;;;;5052332;28;20209;-64
2021/08/31 10:50:17;;;;;;;7.03;4.10;;;23.10;99.90;;;;;;5052625;28;20205;-65
2021/08/31 10:53:01;;;;;;;6.22;3.72;;;22.70;99.90;;;;;;5052723;28;20229;-64
2021/08/31 10:55:44;;;;;;;5.63;4.05;;;22.70;99.90;;;;;;5052197;28;20230;-64
2021/08/31 10:58:33;;;;;;;6.68;4.20;;;23.10;99.90;;;;;;5052548;28;20205;-63
2021/08/31 11:00:59;;;;;;;4.13;3.72;;;23.40;99.90;;;;;;5052692;28;20263;-65
2021/08/31 11:03:39;;;;;;;3.55;3.20;;;23.50;99.90;;;;;;5052312;28;20205;-65
2021/08/31 11:06:29;;;;;;;5.38;3.20;;;23.80;99.90;;;;;;5052490;28;20213;-65
2021/08/31 11:09:20;;;;;;;5.07;3.60;;;24.20;99.90;;;;;;5052015;28;20209;-63
2021/08/31 11:12:04;;;;;;;5.03;3.50;;;24.60;99.90;;;;;;5051931;28;20681;-63
2021/08/31 11:14:42;;;;;;;6.30;4.30;;;24.40;99.90;;;;;;5050930;28;20306;-63
2021/08/31 11:17:09;;;;;;;6.03;3.90;;;24.40;99.90;;;;;;5052546;28;20606;-63
2021/08/31 11:19:37;;;;;;;5.22;4.05;;;24.60;99.90;;;;;;5052052;28;20657;-61
2021/08/31 11:22:04;;;;;;;5.75;3.95;;;24.60;99.90;;;;;;5052263;28;20429;-62
2021/08/31 11:24:30;;;;;;;8.40;3.88;;;24.60;99.90;;;;;;5051428;28;20586;-66
2021/08/31 11:27:02;;;;;;;5.20;3.88;;;24.60;99.90;;;;;;5052099;28;20279;-65
2021/08/31 11:29:29;;;;;;;6.90;3.90;;;24.40;99.90;;;;;;5051487;28;20209;-61
2021/08/31 11:32:04;;;;;;;4.15;3.67;;;24.50;99.90;;;;;;5050139;28;20229;-64
2021/08/31 11:34:30;;;;;;;4.53;3.50;;;24.70;99.90;;;;;;5051080;28;20225;-66
2021/08/31 11:37:08;;;;;;;4.88;3.50;;;24.70;99.90;;;;;;5051400;28;20229;-62
2021/08/31 11:39:36;;;;;;;4.82;3.67;;;24.50;99.90;;;;;;5051786;28;20730;-61
2021/08/31 11:42:03;;;;;;;4.43;3.58;;;24.30;99.90;;;;;;5070455;28;20236;-64
2021/08/31 11:44:30;;;;;;;5.90;3.78;;;24.30;99.90;;;;;;5071324;28;20224;-62
2021/08/31 11:46:57;;;;;;;4.10;3.60;;;24.20;99.90;;;;;;5071219;28;20204;-62
2021/08/31 11:49:26;;;;;;;3.70;3.33;;;24.30;99.90;;;;;;5071439;28;20212;-63
2021/08/31 11:52:01;;;;;;;5.60;3.20;;;24.20;99.90;;;;;;5071914;28;20242;-65
2021/08/31 11:54:31;;;;;;;3.83;3.22;;;24.00;99.90;;;;;;5071700;28;20220;-64
2021/08/31 11:57:01;;;;;;;5.60;4.00;;;23.90;99.90;;;;;;5071128;28;20624;-64
2021/08/31 11:59:38;;;;;;;5.25;3.80;;;23.80;99.90;;;;;;5071267;28;20212;-64
2021/08/31 12:02:16;;;;;;;5.07;3.80;;;23.50;99.90;;;;;;5070967;28;20208;-63
2021/08/31 12:04:45;;;;;;;4.90;3.88;;;23.20;99.90;;;;;;5070935;28;20224;-64
2021/08/31 12:07:16;;;;;;;5.13;4.30;;;23.00;99.90;;;;;;5071086;28;20291;-65
2021/08/31 12:09:45;;;;;;;5.60;3.60;;;23.10;99.90;;;;;;5070980;28;20205;-63
2021/08/31 12:12:12;;;;;;;4.63;4.15;;;23.20;99.90;;;;;;5070718;28;20278;-64
2021/08/31 12:14:40;;;;;;;6.53;3.60;;;23.30;99.90;;;;;;5070099;28;20224;-64
2021/08/31 12:17:08;;;;;;;4.32;3.88;;;23.50;99.90;;;;;;5071066;28;20296;-64
2021/08/31 12:19:34;;;;;;;5.03;3.63;;;23.40;99.90;;;;;;5070772;28;20633;-66
2021/08/31 12:22:10;;;;;;;5.68;3.92;;;23.40;99.90;;;;;;5070678;28;20722;-65
2021/08/31 12:24:37;;;;;;;4.10;3.70;;;23.30;99.90;;;;;;5070519;28;20243;-65
2021/08/31 12:27:14;;;;;;;5.15;4.00;;;23.30;99.90;;;;;;5070456;28;20208;-64
2021/08/31 12:29:50;;;;;;;5.07;4.15;;;23.20;99.90;;;;;;5070413;28;20577;-64
2021/08/31 12:32:23;;;;;;;6.95;4.38;;;23.00;99.90;;;;;;5070399;28;20699;-65
2021/08/31 12:34:50;;;;;;;6.07;3.90;;;22.80;99.90;;;;;;5070324;28;20282;-64
2021/08/31 12:37:30;;;;;;;5.97;3.72;;;22.80;99.90;;;;;;5070256;28;20205;-63
2021/08/31 12:40:18;;;;;;;8.95;6.30;;;22.70;99.90;;;;;;5070582;28;20212;-63
2021/08/31 12:42:48;;;;;;;8.55;4.53;;;22.70;99.90;;;;;;5070430;28;20212;-63
2021/08/31 12:45:25;;;;;;;6.50;3.83;;;22.80;99.90;;;;;;5070142;28;20728;-63
2021/08/31 12:47:54;;;;;;;4.88;3.88;;;22.90;99.90;;;;;;5070020;28;20215;-64
2021/08/31 12:50:21;;;;;;;4.25;3.70;;;23.20;99.90;;;;;;5070384;28;20212;-65
2021/08/31 12:53:02;;;;;;;4.95;3.47;;;23.20;99.90;;;;;;5070270;28;20225;-63